Time;durP1;ratioP1;P1;durP2;ratioP2;P2;SDS_P1;SDS_P2;PMS_P1;PMS_P2;Temp;Humidity;BMP_temperature;BMP_pressure;BME280_temperature;BME280_humidity;BME280_pressure;Samples;Min_cycle;Max_cycle;Signal;HPM_P1;HPM_P2
2022/10/29 00:01:40;;;;;;;7.03;3.28;;;16.40;99.90;;;;;;7388960;19;20133;-76
2022/10/29 00:04:06;;;;;;;8.77;3.40;;;16.60;99.90;;;;;;7385359;19;20257;-75
2022/10/29 00:06:32;;;;;;;4.78;2.72;;;16.80;99.90;;;;;;7390855;19;20605;-76
2022/10/29 00:08:57;;;;;;;10.35;3.25;;;16.90;99.90;;;;;;7387944;19;20193;-75
2022/10/29 00:11:23;;;;;;;9.63;3.50;;;17.00;99.90;;;;;;7390601;19;20152;-76
2022/10/29 00:13:53;;;;;;;9.68;3.80;;;16.90;99.90;;;;;;7383970;19;20149;-76
2022/10/29 00:16:22;;;;;;;8.85;3.92;;;16.90;99.90;;;;;;7389045;19;20169;-75
2022/10/29 00:18:48;;;;;;;8.75;3.70;;;16.80;99.90;;;;;;7387955;19;20225;-74
2022/10/29 00:21:20;;;;;;;7.43;3.55;;;16.80;99.90;;;;;;7386847;19;20214;-74
2022/10/29 00:23:46;;;;;;;9.85;3.35;;;16.70;99.90;;;;;;7388887;19;20137;-75
2022/10/29 00:26:12;;;;;;;5.97;3.08;;;16.50;99.90;;;;;;7387225;19;20206;-75
2022/10/29 00:28:38;;;;;;;7.90;3.30;;;16.10;99.90;;;;;;7387472;19;20138;-76
2022/10/29 00:31:11;;;;;;;5.53;3.38;;;16.20;99.90;;;;;;7386753;19;20180;-75
2022/10/29 00:33:37;;;;;;;6.95;3.13;;;16.30;99.90;;;;;;7387714;19;20608;-76
2022/10/29 00:36:10;;;;;;;7.38;2.95;;;16.60;99.90;;;;;;7387888;19;20162;-76
2022/10/29 00:38:35;;;;;;;6.63;3.50;;;16.30;99.90;;;;;;7385946;19;20722;-76
2022/10/29 00:41:06;;;;;;;7.88;3.40;;;16.50;99.90;;;;;;7386671;19;20146;-76
2022/10/29 00:43:34;;;;;;;12.95;3.58;;;16.50;99.90;;;;;;7387589;19;20150;-76
2022/10/29 00:46:14;;;;;;;9.32;3.80;;;16.20;99.90;;;;;;7386553;19;20234;-76
2022/10/29 00:48:47;;;;;;;8.65;3.28;;;16.00;99.90;;;;;;7387879;19;20624;-76
2022/10/29 00:51:14;;;;;;;8.30;3.38;;;16.30;99.90;;;;;;7386500;19;20157;-76
2022/10/29 00:53:58;;;;;;;9.50;3.60;;;16.40;99.90;;;;;;7385698;19;20131;-75
2022/10/29 00:56:25;;;;;;;8.73;3.53;;;16.60;99.90;;;;;;7390681;19;20817;-76
2022/10/29 00:58:51;;;;;;;10.65;3.40;;;16.50;99.90;;;;;;7392082;19;20217;-76
2022/10/29 01:01:17;;;;;;;13.10;3.78;;;16.60;99.90;;;;;;7396851;19;20131;-75
2022/10/29 01:03:43;;;;;;;9.85;3.13;;;16.40;99.90;;;;;;7391323;19;20466;-75
2022/10/29 01:06:08;;;;;;;6.57;3.13;;;16.30;99.90;;;;;;7393906;19;20596;-75
2022/10/29 01:08:34;;;;;;;5.60;2.78;;;16.40;99.90;;;;;;7390889;19;20184;-76
2022/10/29 01:11:08;;;;;;;9.20;2.83;;;16.60;99.90;;;;;;7393146;19;20133;-75
2022/10/29 01:13:52;;;;;;;7.75;3.38;;;16.70;99.90;;;;;;7395332;19;20463;-76
2022/10/29 01:16:36;;;;;;;11.13;3.80;;;16.40;99.90;;;;;;7394755;19;20595;-76
2022/10/29 01:19:40;;;;;;;5.00;2.88;;;16.40;99.90;;;;;;7391994;19;20154;-76
2022/10/29 01:22:29;;;;;;;6.20;2.78;;;16.30;99.90;;;;;;7394808;19;20138;-75
2022/10/29 01:25:32;;;;;;;4.93;2.80;;;15.90;99.90;;;;;;7390445;19;20150;-75
2022/10/29 01:28:31;;;;;;;8.95;3.55;;;16.10;99.90;;;;;;7394472;19;20568;-75
2022/10/29 01:31:15;;;;;;;4.43;2.67;;;16.10;99.90;;;;;;7394530;19;20156;-75
2022/10/29 01:34:10;;;;;;;8.20;2.95;;;16.20;99.90;;;;;;7395110;19;20135;-76
2022/10/29 01:36:43;;;;;;;6.53;3.15;;;16.20;99.90;;;;;;7393084;19;20548;-76
2022/10/29 01:39:21;;;;;;;7.00;3.08;;;16.20;99.90;;;;;;7391014;19;20150;-76
2022/10/29 01:42:08;;;;;;;9.40;3.40;;;16.20;99.90;;;;;;7389919;19;20169;-76
2022/10/29 01:44:45;;;;;;;5.72;3.42;;;16.20;99.90;;;;;;7393791;19;20154;-76
2022/10/29 01:47:14;;;;;;;6.82;3.45;;;16.50;99.90;;;;;;7390960;19;20587;-75
2022/10/29 01:49:43;;;;;;;5.43;2.80;;;16.60;99.90;;;;;;7390430;19;20629;-76
2022/10/29 01:52:12;;;;;;;6.25;3.03;;;16.70;99.90;;;;;;7393138;19;20145;-75
2022/10/29 01:54:46;;;;;;;6.30;3.17;;;16.60;99.90;;;;;;7392828;19;20139;-75
2022/10/29 01:57:32;;;;;;;6.70;2.75;;;16.20;99.90;;;;;;7391598;19;20174;-75
2022/10/29 02:00:08;;;;;;;7.10;3.17;;;16.30;99.90;;;;;;7389499;19;20150;-74
2022/10/29 02:03:03;;;;;;;5.75;2.65;;;16.30;99.90;;;;;;7389725;19;20126;-75
2022/10/29 02:05:38;;;;;;;5.18;2.75;;;16.10;99.90;;;;;;7392974;19;20194;-75
2022/10/29 02:08:27;;;;;;;6.07;2.75;;;16.00;99.90;;;;;;7389929;19;20138;-76
2022/10/29 02:11:04;;;;;;;6.53;3.13;;;16.10;99.90;;;;;;7391305;19;20174;-75
2022/10/29 02:13:40;;;;;;;8.93;3.42;;;16.30;99.90;;;;;;7392683;19;20525;-75
2022/10/29 02:16:08;;;;;;;7.53;3.03;;;16.30;99.90;;;;;;7393288;19;20134;-75
2022/10/29 02:18:46;;;;;;;10.00;2.53;;;16.00;99.90;;;;;;7390780;19;20154;-75
2022/10/29 02:21:16;;;;;;;8.50;3.42;;;15.80;99.90;;;;;;7394307;19;20218;-75
2022/10/29 02:23:42;;;;;;;5.00;2.75;;;16.10;99.90;;;;;;7394568;19;20157;-76
2022/10/29 02:26:08;;;;;;;12.65;3.30;;;16.30;99.90;;;;;;7391187;19;20138;-76
2022/10/29 02:28:33;;;;;;;6.35;3.10;;;16.30;99.90;;;;;;7391815;19;20134;-75
2022/10/29 02:30:59;;;;;;;7.57;3.17;;;16.40;99.90;;;;;;7394531;19;20131;-76
2022/10/29 02:33:25;;;;;;;8.85;3.22;;;16.40;99.90;;;;;;7388809;19;20524;-75
2022/10/29 02:35:51;;;;;;;4.15;2.60;;;16.50;99.90;;;;;;7394587;19;20159;-75
2022/10/29 02:38:17;;;;;;;6.45;3.05;;;16.50;99.90;;;;;;7395150;19;20202;-75
2022/10/29 02:40:42;;;;;;;5.15;3.47;;;16.50;99.90;;;;;;7394310;19;20146;-75
2022/10/29 02:43:08;;;;;;;9.82;2.97;;;16.40;99.90;;;;;;7395915;19;20719;-75
2022/10/29 02:45:34;;;;;;;13.27;3.13;;;16.40;99.90;;;;;;7397047;19;20131;-76
2022/10/29 02:47:59;;;;;;;5.43;2.92;;;16.40;99.90;;;;;;7398473;19;20591;-75
2022/10/29 02:50:25;;;;;;;6.28;3.30;;;16.50;99.90;;;;;;7393626;19;20142;-76
2022/10/29 02:52:51;;;;;;;10.40;3.95;;;16.50;99.90;;;;;;7390475;19;20158;-75
2022/10/29 02:55:17;;;;;;;5.95;3.42;;;16.50;99.90;;;;;;7391010;19;20142;-74
2022/10/29 02:57:43;;;;;;;7.20;3.50;;;16.50;99.90;;;;;;7387021;19;20150;-75
2022/10/29 03:00:10;;;;;;;9.13;4.22;;;16.50;99.90;;;;;;7390109;19;20166;-75
2022/10/29 03:02:36;;;;;;;8.90;3.63;;;16.60;99.90;;;;;;7392606;19;20492;-76
2022/10/29 03:05:02;;;;;;;7.85;3.47;;;16.50;99.90;;;;;;7391819;19;20227;-76
2022/10/29 03:07:28;;;;;;;6.85;4.07;;;16.20;99.90;;;;;;7390110;19;20631;-75
2022/10/29 03:09:53;;;;;;;6.93;3.80;;;16.30;99.90;;;;;;7387416;19;20172;-76
2022/10/29 03:12:19;;;;;;;10.70;3.45;;;16.30;99.90;;;;;;7391006;19;20135;-75
2022/10/29 03:14:45;;;;;;;7.43;3.53;;;16.40;99.90;;;;;;7389374;19;20575;-75
2022/10/29 03:17:10;;;;;;;9.85;3.63;;;16.50;99.90;;;;;;7383723;19;20142;-76
2022/10/29 03:19:36;;;;;;;9.27;3.92;;;16.60;99.90;;;;;;7384674;19;20150;-75
2022/10/29 03:22:02;;;;;;;8.45;4.25;;;16.60;99.90;;;;;;7391589;19;20138;-76
2022/10/29 03:24:28;;;;;;;8.73;3.35;;;16.50;99.90;;;;;;7392658;19;20603;-76
2022/10/29 03:26:53;;;;;;;8.45;3.92;;;16.60;99.90;;;;;;7386902;19;20142;-75
2022/10/29 03:29:19;;;;;;;6.22;2.90;;;16.50;99.90;;;;;;7390459;19;20237;-75
2022/10/29 03:31:45;;;;;;;10.80;3.75;;;16.40;99.90;;;;;;7389517;19;20238;-75
2022/10/29 03:34:10;;;;;;;9.60;3.40;;;16.40;99.90;;;;;;7390800;19;20206;-75
2022/10/29 03:36:36;;;;;;;6.10;3.80;;;16.40;99.90;;;;;;7388632;19;20618;-74
2022/10/29 03:39:02;;;;;;;13.10;4.30;;;16.40;99.90;;;;;;7386829;19;20157;-76
2022/10/29 03:41:27;;;;;;;8.45;3.25;;;16.40;99.90;;;;;;7390245;19;20141;-74
2022/10/29 03:43:53;;;;;;;4.32;2.80;;;16.30;99.90;;;;;;7388624;19;20604;-76
2022/10/29 03:46:19;;;;;;;8.35;3.20;;;16.10;99.90;;;;;;7389274;19;20134;-76
2022/10/29 03:48:48;;;;;;;8.07;3.53;;;16.10;99.90;;;;;;7387695;19;20127;-76
2022/10/29 03:51:14;;;;;;;6.60;3.47;;;16.10;99.90;;;;;;7389322;19;20142;-76
2022/10/29 03:53:40;;;;;;;7.35;3.40;;;16.30;99.90;;;;;;7390422;19;20148;-76
2022/10/29 03:56:06;;;;;;;9.00;3.63;;;16.20;99.90;;;;;;7387540;19;20157;-76
2022/10/29 03:58:31;;;;;;;6.40;3.40;;;16.30;99.90;;;;;;7387748;19;20257;-75
2022/10/29 04:01:06;;;;;;;8.80;3.58;;;16.40;99.90;;;;;;7386275;19;20202;-75
2022/10/29 04:03:33;;;;;;;7.47;3.53;;;16.40;99.90;;;;;;7389947;19;20767;-74
2022/10/29 04:06:01;;;;;;;7.38;3.55;;;16.10;99.90;;;;;;7388495;19;20609;-76
2022/10/29 04:08:26;;;;;;;8.55;4.38;;;16.30;99.90;;;;;;7389222;19;20139;-76
2022/10/29 04:10:52;;;;;;;7.97;3.83;;;16.50;99.90;;;;;;7389164;19;20149;-76
2022/10/29 04:13:19;;;;;;;9.30;3.42;;;16.50;99.90;;;;;;7386326;19;20138;-75
2022/10/29 04:15:45;;;;;;;9.63;4.13;;;16.40;99.90;;;;;;7390941;19;20143;-75
2022/10/29 04:18:11;;;;;;;8.70;3.95;;;16.10;99.90;;;;;;7385526;19;20643;-76
2022/10/29 04:20:39;;;;;;;7.88;3.40;;;15.90;99.90;;;;;;7386428;19;20165;-76
2022/10/29 04:23:05;;;;;;;5.60;3.40;;;16.00;99.90;;;;;;7390219;19;20165;-75
2022/10/29 04:25:31;;;;;;;7.20;3.60;;;16.30;99.90;;;;;;7387315;19;20202;-76
2022/10/29 04:27:57;;;;;;;8.75;3.00;;;16.20;99.90;;;;;;7384780;19;20151;-75
2022/10/29 04:30:23;;;;;;;7.38;3.30;;;16.20;99.90;;;;;;7388723;19;20150;-75
2022/10/29 04:32:50;;;;;;;6.18;3.28;;;16.10;99.90;;;;;;7387928;19;20472;-75
2022/10/29 04:35:16;;;;;;;7.93;3.03;;;16.10;99.90;;;;;;7390607;19;20135;-75
2022/10/29 04:37:41;;;;;;;6.55;3.88;;;16.00;99.90;;;;;;7390780;19;20158;-75
2022/10/29 04:40:08;;;;;;;9.13;3.22;;;16.10;99.90;;;;;;7383976;19;20178;-76
2022/10/29 04:42:38;;;;;;;5.00;3.40;;;16.00;99.90;;;;;;7387549;19;20162;-76
2022/10/29 04:45:05;;;;;;;9.05;3.47;;;16.00;99.90;;;;;;7389046;19;20154;-76
2022/10/29 04:47:31;;;;;;;8.30;3.58;;;16.10;99.90;;;;;;7390050;19;20127;-73
2022/10/29 04:49:57;;;;;;;7.72;3.50;;;16.20;99.90;;;;;;7390304;19;20142;-76
2022/10/29 04:52:23;;;;;;;6.70;3.00;;;16.30;99.90;;;;;;7390217;19;20123;-76
2022/10/29 04:54:49;;;;;;;6.65;3.30;;;16.00;99.90;;;;;;7390043;19;20151;-75
2022/10/29 04:57:15;;;;;;;6.22;3.38;;;15.80;99.90;;;;;;7387656;19;20659;-75
2022/10/29 04:59:40;;;;;;;9.68;4.28;;;16.10;99.90;;;;;;7385618;19;20135;-75
2022/10/29 05:02:06;;;;;;;8.82;3.55;;;16.20;99.90;;;;;;7386097;19;20131;-74
2022/10/29 05:04:32;;;;;;;6.18;3.20;;;15.80;99.90;;;;;;7384651;19;20323;-76
2022/10/29 05:06:57;;;;;;;8.90;3.83;;;15.50;99.90;;;;;;7385707;19;20131;-76
2022/10/29 05:09:23;;;;;;;5.55;3.28;;;15.60;99.90;;;;;;7385901;19;20146;-75
2022/10/29 05:11:49;;;;;;;8.05;3.55;;;15.60;99.90;;;;;;7386256;19;20142;-75
2022/10/29 05:14:15;;;;;;;8.98;3.50;;;15.70;99.90;;;;;;7389529;19;20190;-76
2022/10/29 05:16:40;;;;;;;7.90;3.72;;;15.80;99.90;;;;;;7386441;19;20135;-75
2022/10/29 05:19:06;;;;;;;6.63;3.45;;;16.10;99.90;;;;;;7384546;19;20544;-75
2022/10/29 05:21:32;;;;;;;8.75;3.38;;;15.90;99.90;;;;;;7385879;19;20159;-75
2022/10/29 05:23:57;;;;;;;9.77;3.80;;;15.80;99.90;;;;;;7384967;19;20143;-75
2022/10/29 05:26:23;;;;;;;7.18;3.53;;;15.60;99.90;;;;;;7386723;19;20546;-75
2022/10/29 05:28:50;;;;;;;9.05;3.33;;;15.40;99.90;;;;;;7384332;19;20166;-75
2022/10/29 05:31:17;;;;;;;6.93;3.47;;;15.40;99.90;;;;;;7385345;19;20150;-75
2022/10/29 05:33:42;;;;;;;8.23;3.53;;;15.40;99.90;;;;;;7387897;19;20149;-74
2022/10/29 05:36:08;;;;;;;10.00;3.85;;;15.10;99.90;;;;;;7385589;19;20161;-75
2022/10/29 05:38:34;;;;;;;6.93;4.00;;;15.20;99.90;;;;;;7383825;19;20146;-75
2022/10/29 05:41:00;;;;;;;6.43;3.40;;;15.50;99.90;;;;;;7383768;19;20246;-75
2022/10/29 05:43:26;;;;;;;9.40;3.53;;;15.60;99.90;;;;;;7388329;19;20596;-75
2022/10/29 05:45:52;;;;;;;7.10;3.78;;;15.40;99.90;;;;;;7394001;19;20146;-75
2022/10/29 05:48:18;;;;;;;5.35;3.67;;;15.30;99.90;;;;;;7394264;19;20143;-75
2022/10/29 05:50:44;;;;;;;5.57;3.38;;;15.50;99.90;;;;;;7395294;19;20147;-75
2022/10/29 05:53:11;;;;;;;11.05;4.07;;;15.20;99.90;;;;;;7393618;19;20611;-74
2022/10/29 05:55:38;;;;;;;8.63;3.70;;;15.20;99.90;;;;;;7395171;19;20143;-74
2022/10/29 05:58:08;;;;;;;9.25;3.30;;;15.10;99.90;;;;;;7393906;19;20159;-75
2022/10/29 06:00:36;;;;;;;13.23;7.07;;;15.00;99.90;;;;;;7391194;19;20161;-74
2022/10/29 06:03:02;;;;;;;10.48;4.20;;;15.30;99.90;;;;;;7391863;19;20636;-75
2022/10/29 06:05:28;;;;;;;7.70;3.30;;;15.10;99.90;;;;;;7393091;19;20147;-75
2022/10/29 06:07:55;;;;;;;6.97;3.28;;;14.80;99.90;;;;;;7391997;19;20616;-75
2022/10/29 06:10:21;;;;;;;7.50;3.42;;;14.90;99.90;;;;;;7392564;19;20226;-74
2022/10/29 06:12:48;;;;;;;8.55;3.33;;;14.90;99.90;;;;;;7392171;19;20139;-74
2022/10/29 06:15:14;;;;;;;7.75;4.03;;;14.90;99.90;;;;;;7392536;19;20155;-75
2022/10/29 06:17:41;;;;;;;9.63;3.35;;;14.90;99.90;;;;;;7391090;19;20146;-75
2022/10/29 06:20:08;;;;;;;5.50;3.38;;;14.90;99.90;;;;;;7390320;19;20162;-74
2022/10/29 06:22:34;;;;;;;6.70;3.35;;;15.10;99.90;;;;;;7393044;19;20150;-76
2022/10/29 06:25:00;;;;;;;8.65;3.13;;;15.10;99.90;;;;;;7391170;19;20159;-74
2022/10/29 06:27:26;;;;;;;7.88;3.40;;;14.80;99.90;;;;;;7389601;19;20147;-75
2022/10/29 06:29:52;;;;;;;5.88;3.15;;;14.90;99.90;;;;;;7392896;19;20147;-74
2022/10/29 06:32:17;;;;;;;7.18;3.35;;;15.00;99.90;;;;;;7392206;19;20146;-75
2022/10/29 06:34:43;;;;;;;11.68;3.63;;;15.10;99.90;;;;;;7394855;19;20138;-75
2022/10/29 06:37:09;;;;;;;6.03;3.65;;;15.20;99.90;;;;;;7395636;19;20254;-74
2022/10/29 06:39:35;;;;;;;6.15;3.75;;;15.10;99.90;;;;;;7391273;19;20161;-75
2022/10/29 06:42:01;;;;;;;6.13;3.75;;;15.20;99.90;;;;;;7389966;19;20655;-75
2022/10/29 06:44:27;;;;;;;10.40;3.45;;;15.20;99.90;;;;;;7392533;19;20181;-74
2022/10/29 06:46:52;;;;;;;7.32;3.30;;;15.10;99.90;;;;;;7392927;19;20863;-74
2022/10/29 06:49:19;;;;;;;5.80;3.22;;;15.10;99.90;;;;;;7393244;19;20142;-75
2022/10/29 06:51:45;;;;;;;8.32;3.58;;;14.90;99.90;;;;;;7390361;19;20135;-74
2022/10/29 06:54:10;;;;;;;9.13;3.58;;;15.20;99.90;;;;;;7395252;19;20143;-74
2022/10/29 06:56:36;;;;;;;9.20;3.22;;;15.40;99.90;;;;;;7392603;19;20126;-73
2022/10/29 06:59:02;;;;;;;7.13;3.47;;;15.40;99.90;;;;;;7390465;19;20510;-74
2022/10/29 07:01:31;;;;;;;9.00;3.63;;;15.50;99.90;;;;;;7391953;19;20176;-75
2022/10/29 07:03:57;;;;;;;8.25;3.95;;;15.60;99.90;;;;;;7395330;19;20143;-75
2022/10/29 07:06:23;;;;;;;6.03;3.47;;;15.70;99.90;;;;;;7394761;19;20651;-75
2022/10/29 07:08:49;;;;;;;8.48;4.28;;;15.80;99.90;;;;;;7395282;19;20143;-75
2022/10/29 07:11:15;;;;;;;8.45;4.32;;;15.80;99.90;;;;;;7395448;19;20130;-75
2022/10/29 07:13:43;;;;;;;8.32;3.88;;;15.80;99.90;;;;;;7396059;19;20154;-74
2022/10/29 07:16:09;;;;;;;7.50;4.03;;;15.80;99.90;;;;;;7395888;19;20747;-75
2022/10/29 07:18:35;;;;;;;7.43;4.57;;;15.80;99.90;;;;;;7396968;19;20147;-74
2022/10/29 07:21:03;;;;;;;16.55;5.00;;;15.80;99.90;;;;;;7397576;19;20582;-73
2022/10/29 07:23:29;;;;;;;7.43;4.00;;;15.90;99.90;;;;;;7398274;19;20134;-75
2022/10/29 07:25:55;;;;;;;7.88;4.30;;;15.90;99.90;;;;;;7397648;19;20497;-74
2022/10/29 07:28:22;;;;;;;9.00;4.55;;;16.00;99.90;;;;;;7400319;19;20148;-75
2022/10/29 07:30:52;;;;;;;9.52;4.15;;;15.60;99.90;;;;;;7401389;19;20155;-75
2022/10/29 07:33:18;;;;;;;7.75;4.00;;;15.80;99.90;;;;;;7398964;19;20169;-74
2022/10/29 07:35:44;;;;;;;8.18;3.85;;;15.60;99.90;;;;;;7402965;19;20142;-74
2022/10/29 07:38:11;;;;;;;11.00;4.95;;;15.60;99.90;;;;;;7406757;19;20186;-75
2022/10/29 07:40:47;;;;;;;10.25;4.07;;;15.70;99.90;;;;;;7397568;19;20150;-75
2022/10/29 07:43:13;;;;;;;9.20;4.65;;;15.90;99.90;;;;;;7400852;19;20163;-75
2022/10/29 07:45:40;;;;;;;7.40;3.97;;;15.90;99.90;;;;;;7399454;19;20150;-75
2022/10/29 07:48:06;;;;;;;7.50;4.53;;;16.00;99.90;;;;;;7396857;19;20161;-74
2022/10/29 07:50:32;;;;;;;8.35;4.55;;;16.10;99.90;;;;;;7394487;19;20161;-74
2022/10/29 07:52:59;;;;;;;11.95;5.28;;;16.10;99.90;;;;;;7391125;19;20491;-75
2022/10/29 07:55:26;;;;;;;13.85;4.85;;;16.20;99.90;;;;;;7397104;19;20146;-75
2022/10/29 07:58:01;;;;;;;7.38;4.45;;;16.10;99.90;;;;;;7395266;19;20131;-75
2022/10/29 08:00:28;;;;;;;7.90;4.40;;;16.20;99.90;;;;;;7390490;19;20144;-75
2022/10/29 08:02:55;;;;;;;8.38;5.22;;;16.20;99.90;;;;;;7390284;19;20147;-75
2022/10/29 08:05:21;;;;;;;8.98;4.78;;;16.20;99.90;;;;;;7396521;19;20130;-76
2022/10/29 08:07:47;;;;;;;9.85;5.05;;;16.30;99.90;;;;;;7389795;19;20597;-75
2022/10/29 08:10:13;;;;;;;8.45;4.82;;;16.20;99.90;;;;;;7390134;19;20161;-75
2022/10/29 08:12:39;;;;;;;9.80;5.28;;;16.00;99.90;;;;;;7389838;19;20906;-74
2022/10/29 08:15:05;;;;;;;7.70;4.50;;;15.70;99.90;;;;;;7388024;19;20150;-74
2022/10/29 08:17:31;;;;;;;8.05;4.85;;;15.60;99.90;;;;;;7391631;19;20151;-75
2022/10/29 08:19:57;;;;;;;9.73;5.50;;;15.60;99.90;;;;;;7386500;19;20167;-76
2022/10/29 08:22:23;;;;;;;9.40;5.07;;;15.90;99.90;;;;;;7388962;19;20139;-77
2022/10/29 08:24:49;;;;;;;13.10;5.05;;;16.20;99.90;;;;;;7391539;19;20135;-77
2022/10/29 08:27:14;;;;;;;7.82;4.70;;;16.30;99.90;;;;;;7390783;19;20138;-77
2022/10/29 08:29:40;;;;;;;6.97;4.20;;;16.30;99.90;;;;;;7388986;19;20184;-77
2022/10/29 08:32:06;;;;;;;6.53;4.22;;;16.20;99.90;;;;;;7390154;19;20131;-78
2022/10/29 08:34:32;;;;;;;10.77;5.15;;;16.20;99.90;;;;;;7392122;19;20135;-79
2022/10/29 08:36:58;;;;;;;13.52;4.63;;;16.20;99.90;;;;;;7391651;19;20558;-81
2022/10/29 08:39:23;;;;;;;12.15;4.55;;;16.30;99.90;;;;;;7391440;19;20138;-80
2022/10/29 08:41:59;;;;;;;8.82;4.63;;;16.40;99.90;;;;;;7388744;19;20169;-79
2022/10/29 08:44:46;;;;;;;14.02;5.93;;;16.50;99.90;;;;;;7389229;19;20130;-78
2022/10/29 08:47:22;;;;;;;13.50;4.97;;;16.50;99.90;;;;;;7394078;19;20130;-78
2022/10/29 08:49:53;;;;;;;10.43;4.32;;;16.70;99.90;;;;;;7392806;19;20486;-78
2022/10/29 08:52:25;;;;;;;13.38;4.70;;;16.90;99.90;;;;;;7389504;19;20139;-77
2022/10/29 08:55:06;;;;;;;9.95;4.03;;;17.10;99.90;;;;;;7390394;19;20135;-80
2022/10/29 08:57:40;;;;;;;7.25;4.13;;;17.10;99.90;;;;;;7391795;19;20145;-77
2022/10/29 09:00:15;;;;;;;11.13;5.35;;;17.10;99.90;;;;;;7388156;19;20472;-80
2022/10/29 09:02:41;;;;;;;14.85;4.93;;;17.40;99.90;;;;;;7392213;19;20269;-80
2022/10/29 09:05:19;;;;;;;13.23;5.03;;;17.70;99.90;;;;;;7389488;19;20140;-78
2022/10/29 09:08:07;;;;;;;11.00;4.80;;;17.70;99.90;;;;;;7396613;19;20154;-77
2022/10/29 09:11:01;;;;;;;7.57;4.72;;;17.70;99.90;;;;;;7400331;19;20134;-85
2022/10/29 09:13:41;;;;;;;10.50;4.07;;;17.60;99.90;;;;;;7396285;19;20170;-81
2022/10/29 09:16:25;;;;;;;9.40;5.30;;;17.50;99.90;;;;;;7395948;19;20142;-79
2022/10/29 09:19:06;;;;;;;8.18;4.43;;;17.40;99.90;;;;;;7401640;19;20488;-78
2022/10/29 09:22:06;;;;;;;9.20;4.00;;;17.30;99.90;;;;;;7407499;19;20138;-79
2022/10/29 09:25:02;;;;;;;8.70;4.93;;;17.30;99.90;;;;;;7403902;19;20154;-80
2022/10/29 09:27:59;;;;;;;8.48;4.15;;;17.30;99.90;;;;;;7405971;19;20147;-83
2022/10/29 09:30:29;;;;;;;8.65;3.95;;;17.30;99.90;;;;;;7403462;19;20146;-82
2022/10/29 09:33:18;;;;;;;7.57;4.18;;;17.60;99.90;;;;;;7410827;19;20135;-77
2022/10/29 09:35:47;;;;;;;6.07;3.63;;;17.80;99.90;;;;;;7397275;19;20138;-77
2022/10/29 09:38:37;;;;;;;7.40;3.65;;;17.90;99.90;;;;;;7396402;19;20126;-78
2022/10/29 09:41:04;;;;;;;8.98;4.43;;;17.90;99.90;;;;;;7392140;19;20156;-78
2022/10/29 09:43:35;;;;;;;10.60;3.70;;;17.80;99.90;;;;;;7404230;19;20154;-84
2022/10/29 09:46:10;;;;;;;7.45;3.83;;;17.90;99.90;;;;;;7400959;19;20510;-81
2022/10/29 09:48:40;;;;;;;10.02;4.70;;;18.20;99.90;;;;;;7402398;19;20126;-82
2022/10/29 09:51:42;;;;;;;12.10;4.50;;;18.50;99.90;;;;;;7404578;19;20139;-84
2022/10/29 09:54:08;;;;;;;9.60;4.20;;;18.70;99.90;;;;;;7401955;19;20126;-83
2022/10/29 09:56:36;;;;;;;9.48;3.47;;;18.60;99.90;;;;;;7398604;19;20150;-81
2022/10/29 09:59:17;;;;;;;8.32;3.78;;;18.70;99.90;;;;;;7395142;19;20152;-82
2022/10/29 10:01:46;;;;;;;8.43;3.78;;;18.80;99.90;;;;;;7396873;19;20123;-79
2022/10/29 10:04:21;;;;;;;8.68;3.72;;;18.70;99.90;;;;;;7399307;19;20174;-86
2022/10/29 10:07:06;;;;;;;8.88;3.67;;;18.70;99.90;;;;;;7401199;19;20131;-88
2022/10/29 10:09:53;;;;;;;14.27;5.07;;;18.70;99.90;;;;;;7400394;19;20138;-87
2022/10/29 10:12:28;;;;;;;13.18;4.85;;;18.70;99.90;;;;;;7400396;19;20134;-88
2022/10/29 10:15:06;;;;;;;8.57;4.03;;;18.80;99.90;;;;;;7399142;19;20230;-85
2022/10/29 10:17:54;;;;;;;10.65;4.75;;;18.90;99.90;;;;;;7401810;19;20134;-84
2022/10/29 10:20:32;;;;;;;7.45;4.15;;;19.00;99.90;;;;;;7399730;19;20147;-88
2022/10/29 10:22:58;;;;;;;10.20;3.80;;;19.10;99.90;;;;;;7397863;19;20221;-87
2022/10/29 10:25:52;;;;;;;7.43;3.67;;;19.20;99.90;;;;;;7398902;19;20691;-89
2022/10/29 10:28:23;;;;;;;10.50;4.03;;;19.30;99.90;;;;;;7397475;19;20159;-87
2022/10/29 10:31:13;;;;;;;9.52;3.75;;;19.50;99.90;;;;;;7397107;19;20526;-86
2022/10/29 10:33:53;;;;;;;10.80;3.65;;;19.50;99.90;;;;;;7398225;19;20150;-87
2022/10/29 10:36:29;;;;;;;10.40;3.90;;;19.60;99.90;;;;;;7397663;19;20612;-89
2022/10/29 10:38:58;;;;;;;6.22;3.20;;;19.80;99.90;;;;;;7400529;19;20134;-87
2022/10/29 10:41:29;;;;;;;13.95;4.32;;;19.90;99.90;;;;;;7407192;19;20135;-87
2022/10/29 10:44:00;;;;;;;15.70;4.82;;;20.00;99.90;;;;;;7404398;19;20174;-88
2022/10/29 10:46:31;;;;;;;8.00;4.00;;;19.90;99.90;;;;;;7397586;19;20131;-84
2022/10/29 10:49:12;;;;;;;6.15;3.47;;;20.10;99.90;;;;;;7394063;19;20150;-84
2022/10/29 10:51:43;;;;;;;13.90;3.70;;;20.40;99.90;;;;;;7397458;19;20134;-83
2022/10/29 10:54:25;;;;;;;8.80;4.13;;;20.30;99.90;;;;;;7394082;19;20135;-84
2022/10/29 10:57:16;;;;;;;9.23;3.22;;;20.20;99.90;;;;;;7395277;19;20135;-80
2022/10/29 11:00:17;;;;;;;9.05;3.60;;;20.30;99.90;;;;;;7392900;19;20146;-82
2022/10/29 11:03:05;;;;;;;7.68;3.30;;;20.40;99.90;;;;;;7389854;19;20623;-83
2022/10/29 11:05:48;;;;;;;11.00;3.85;;;20.60;99.90;;;;;;7394396;19;20135;-77
2022/10/29 11:08:36;;;;;;;12.13;5.38;;;20.60;99.90;;;;;;7391219;19;20146;-80
2022/10/29 11:11:09;;;;;;;9.10;4.65;;;20.50;99.90;;;;;;7389640;19;20134;-76
2022/10/29 11:13:38;;;;;;;11.25;4.18;;;20.50;99.90;;;;;;7393181;19;20130;-80
2022/10/29 11:16:37;;;;;;;12.50;3.97;;;20.60;99.90;;;;;;7388528;19;20134;-80
2022/10/29 11:19:21;;;;;;;7.63;3.75;;;20.70;99.90;;;;;;7392582;19;20543;-80
2022/10/29 11:21:50;;;;;;;10.27;4.00;;;20.70;99.90;;;;;;7391757;19;20146;-80
2022/10/29 11:24:37;;;;;;;6.63;3.70;;;20.80;99.90;;;;;;7392134;19;20551;-81
2022/10/29 11:27:18;;;;;;;7.80;3.42;;;20.80;99.90;;;;;;7390492;19;20134;-80
2022/10/29 11:29:57;;;;;;;7.60;4.18;;;20.90;99.90;;;;;;7392282;19;20147;-81
2022/10/29 11:32:47;;;;;;;8.85;3.80;;;21.00;99.90;;;;;;7389970;19;20166;-81
2022/10/29 11:35:21;;;;;;;7.07;3.47;;;21.20;99.90;;;;;;7392471;19;20135;-81
2022/10/29 11:38:02;;;;;;;10.05;3.83;;;21.20;99.90;;;;;;7393040;19;20799;-81
2022/10/29 11:40:57;;;;;;;8.43;3.30;;;21.30;99.90;;;;;;7388188;19;20134;-82
2022/10/29 11:43:23;;;;;;;6.82;3.58;;;21.30;99.90;;;;;;7392741;19;20150;-81
2022/10/29 11:46:07;;;;;;;6.47;3.63;;;21.30;99.90;;;;;;7386562;19;20139;-82
2022/10/29 11:48:52;;;;;;;10.90;4.15;;;21.30;99.90;;;;;;7390866;19;20146;-81
2022/10/29 11:51:34;;;;;;;5.75;3.58;;;21.50;99.90;;;;;;7391050;19;20166;-79
2022/10/29 11:54:24;;;;;;;8.18;3.88;;;21.50;99.90;;;;;;7391641;19;20169;-81
2022/10/29 11:57:02;;;;;;;10.40;4.15;;;21.60;99.90;;;;;;7392724;19;20157;-81
2022/10/29 11:59:51;;;;;;;9.63;3.72;;;21.60;99.90;;;;;;7389598;19;20131;-81
2022/10/29 12:02:38;;;;;;;8.18;4.13;;;21.60;99.90;;;;;;7391118;19;20153;-81
2022/10/29 12:05:24;;;;;;;8.57;3.92;;;21.70;99.90;;;;;;7389903;19;20134;-78
2022/10/29 12:08:35;;;;;;;7.45;3.90;;;21.80;99.90;;;;;;7389951;19;20146;-83
2022/10/29 12:11:19;;;;;;;6.40;3.60;;;21.90;99.90;;;;;;7389797;19;20154;-81
2022/10/29 12:14:22;;;;;;;9.55;4.25;;;22.00;99.90;;;;;;7392400;19;20168;-78
2022/10/29 12:16:56;;;;;;;6.50;3.47;;;22.10;99.90;;;;;;7395669;19;20580;-81
2022/10/29 12:19:28;;;;;;;9.02;4.28;;;22.20;99.90;;;;;;7393624;19;20605;-80
2022/10/29 12:22:13;;;;;;;12.30;3.63;;;22.20;99.90;;;;;;7394796;19;20258;-81
2022/10/29 12:24:57;;;;;;;10.15;3.40;;;22.20;99.90;;;;;;7395025;19;20158;-80
2022/10/29 12:27:41;;;;;;;7.55;3.28;;;22.50;99.90;;;;;;7400330;19;20142;-80
2022/10/29 12:30:09;;;;;;;6.82;3.33;;;22.50;99.90;;;;;;7396360;19;20194;-77
2022/10/29 12:33:02;;;;;;;8.00;3.95;;;22.50;99.90;;;;;;7396500;19;20146;-77
2022/10/29 12:35:40;;;;;;;9.65;3.40;;;22.50;99.90;;;;;;7396319;19;20587;-82
2022/10/29 12:38:48;;;;;;;7.82;3.78;;;22.50;99.90;;;;;;7396440;19;20151;-78
2022/10/29 12:41:29;;;;;;;7.30;2.92;;;22.40;99.90;;;;;;7392237;19;20168;-78
2022/10/29 12:44:23;;;;;;;15.55;3.10;;;22.30;99.90;;;;;;7392720;19;20168;-79
2022/10/29 12:47:03;;;;;;;10.38;3.88;;;22.30;99.90;;;;;;7392912;19;20150;-80
2022/10/29 12:49:48;;;;;;;9.85;3.47;;;22.30;99.90;;;;;;7394416;19;20138;-79
2022/10/29 12:52:35;;;;;;;9.27;3.67;;;22.30;99.90;;;;;;7398960;19;20189;-77
2022/10/29 12:55:03;;;;;;;7.70;3.15;;;22.20;99.90;;;;;;7401646;19;20162;-79
2022/10/29 12:57:34;;;;;;;7.93;3.75;;;22.20;99.90;;;;;;7400595;19;20157;-77
2022/10/29 13:00:21;;;;;;;11.18;4.00;;;22.20;99.90;;;;;;7376894;19;20150;-79
2022/10/29 13:02:50;;;;;;;9.43;4.30;;;22.20;99.90;;;;;;7396070;19;20189;-82
2022/10/29 13:05:39;;;;;;;9.60;3.83;;;22.10;99.90;;;;;;7395486;19;20153;-78
2022/10/29 13:08:05;;;;;;;6.70;3.63;;;22.10;99.90;;;;;;7394252;19;20134;-78
2022/10/29 13:10:33;;;;;;;10.77;3.72;;;22.10;99.90;;;;;;7393234;19;20157;-79
2022/10/29 13:13:17;;;;;;;6.65;3.47;;;22.10;99.90;;;;;;7392329;19;20146;-78